Time;durP1;ratioP1;P1;durP2;ratioP2;P2;SDS_P1;SDS_P2;PMS_P1;PMS_P2;Temp;Humidity;BMP_temperature;BMP_pressure;BME280_temperature;BME280_humidity;BME280_pressure;Samples;Min_cycle;Max_cycle;Signal;HPM_P1;HPM_P2
2022/09/30 00:01:31;;;;;;;9.13;7.30;;;8.30;99.90;;;;;;5033124;28;20433;-48
2022/09/30 00:03:57;;;;;;;7.43;6.73;;;8.30;99.90;;;;;;5031959;28;20441;-53
2022/09/30 00:06:28;;;;;;;8.50;7.20;;;8.10;99.90;;;;;;5032869;28;21089;-50
2022/09/30 00:08:54;;;;;;;7.60;6.90;;;8.10;99.90;;;;;;5032868;28;20433;-52
2022/09/30 00:11:24;;;;;;;8.00;7.20;;;8.00;99.90;;;;;;5032673;28;20530;-52
2022/09/30 00:13:51;;;;;;;8.27;7.47;;;7.90;99.90;;;;;;5032230;28;20429;-50
2022/09/30 00:16:19;;;;;;;8.00;7.20;;;7.90;99.90;;;;;;5032564;28;20425;-48
2022/09/30 00:18:46;;;;;;;8.90;7.30;;;8.00;99.90;;;;;;5032729;28;20775;-51
2022/09/30 00:21:14;;;;;;;7.63;6.87;;;7.90;99.90;;;;;;5033743;28;20535;-53
2022/09/30 00:23:41;;;;;;;6.83;6.03;;;7.90;99.90;;;;;;5032002;28;20425;-53
2022/09/30 00:26:10;;;;;;;6.80;6.20;;;7.90;99.90;;;;;;5032528;28;20436;-50
2022/09/30 00:28:37;;;;;;;7.67;6.27;;;7.60;99.90;;;;;;5032603;28;20463;-51
2022/09/30 00:31:07;;;;;;;7.33;6.63;;;7.70;99.90;;;;;;5032256;28;20464;-53
2022/09/30 00:33:34;;;;;;;7.43;6.73;;;7.70;99.90;;;;;;5031832;28;20928;-49
2022/09/30 00:36:00;;;;;;;7.43;6.63;;;7.60;99.90;;;;;;5032412;28;20788;-49
2022/09/30 00:38:26;;;;;;;7.33;6.20;;;7.90;99.90;;;;;;5031133;28;20464;-48
2022/09/30 00:40:52;;;;;;;7.43;6.73;;;7.90;99.90;;;;;;5032329;28;20928;-50
2022/09/30 00:43:37;;;;;;;6.90;6.20;;;7.80;99.90;;;;;;5031653;28;20536;-52
2022/09/30 00:46:04;;;;;;;6.73;6.07;;;7.80;99.90;;;;;;5032283;28;20429;-52
2022/09/30 00:48:34;;;;;;;12.10;7.07;;;7.90;99.90;;;;;;5032347;28;20476;-51
2022/09/30 00:51:02;;;;;;;7.20;6.50;;;8.10;99.90;;;;;;5032064;28;20853;-49
2022/09/30 00:53:30;;;;;;;8.23;6.23;;;8.10;99.90;;;;;;5046431;28;20433;-52
2022/09/30 00:56:01;;;;;;;6.93;6.20;;;8.00;99.90;;;;;;5030866;28;20836;-53
2022/09/30 00:58:34;;;;;;;8.67;6.50;;;7.90;99.90;;;;;;5031976;28;20418;-50
2022/09/30 01:01:00;;;;;;;7.57;5.93;;;7.90;99.90;;;;;;5032128;28;20433;-50
2022/09/30 01:03:34;;;;;;;6.77;6.07;;;7.70;99.90;;;;;;5031357;28;20506;-50
2022/09/30 01:06:01;;;;;;;6.70;5.83;;;7.70;99.90;;;;;;5031786;28;20467;-50
2022/09/30 01:08:29;;;;;;;7.80;6.23;;;7.60;99.90;;;;;;5031614;28;20437;-48
2022/09/30 01:10:55;;;;;;;8.10;5.70;;;7.60;99.90;;;;;;5031644;28;20468;-50
2022/09/30 01:13:26;;;;;;;6.97;6.00;;;7.50;99.90;;;;;;5031141;28;20499;-53
2022/09/30 01:16:08;;;;;;;6.50;5.90;;;7.50;99.90;;;;;;5031660;28;20197;-54
2022/09/30 01:18:54;;;;;;;6.40;5.70;;;7.30;99.90;;;;;;5031786;28;20429;-50
2022/09/30 01:21:29;;;;;;;6.93;6.23;;;7.40;99.90;;;;;;5032208;28;20433;-50
2022/09/30 01:24:28;;;;;;;10.47;6.10;;;7.80;99.90;;;;;;5031055;28;20515;-50
2022/09/30 01:27:14;;;;;;;6.43;5.27;;;7.70;99.90;;;;;;5031539;28;20452;-49
2022/09/30 01:30:08;;;;;;;5.67;5.00;;;7.80;99.90;;;;;;5031384;28;20425;-53
2022/09/30 01:33:01;;;;;;;5.97;5.10;;;7.70;99.90;;;;;;5031105;28;20429;-52
2022/09/30 01:35:47;;;;;;;5.70;5.10;;;7.70;99.90;;;;;;5031073;28;20426;-48
2022/09/30 01:38:29;;;;;;;6.20;5.07;;;7.70;99.90;;;;;;5031313;28;20916;-47
2022/09/30 01:41:17;;;;;;;5.60;5.10;;;7.70;99.90;;;;;;5031069;28;20472;-50
2022/09/30 01:44:08;;;;;;;6.17;5.33;;;7.60;99.90;;;;;;5030587;28;20413;-48
2022/09/30 01:46:45;;;;;;;5.83;5.30;;;7.50;99.90;;;;;;5030950;28;20421;-49
2022/09/30 01:49:33;;;;;;;6.00;5.40;;;7.50;99.90;;;;;;5031063;28;20951;-52
2022/09/30 01:52:07;;;;;;;7.40;5.27;;;7.50;99.90;;;;;;5030942;28;20473;-50
2022/09/30 01:54:39;;;;;;;5.23;4.80;;;7.40;99.90;;;;;;5029470;28;20460;-50
2022/09/30 01:57:27;;;;;;;6.50;5.77;;;7.50;99.90;;;;;;5030768;28;20421;-52
2022/09/30 02:00:07;;;;;;;5.97;4.80;;;7.40;99.90;;;;;;5030427;28;20440;-49
2022/09/30 02:02:40;;;;;;;6.47;5.50;;;7.30;99.90;;;;;;5030305;28;20439;-51
2022/09/30 02:05:11;;;;;;;5.20;4.70;;;7.50;99.90;;;;;;5030292;28;20448;-47
2022/09/30 02:07:45;;;;;;;5.67;5.17;;;7.40;99.90;;;;;;5030468;28;20420;-48
2022/09/30 02:10:43;;;;;;;5.57;5.07;;;7.60;99.90;;;;;;5030720;28;20424;-52
2022/09/30 02:13:28;;;;;;;5.57;5.07;;;7.60;99.90;;;;;;5028998;28;21111;-49
2022/09/30 02:15:59;;;;;;;6.03;5.50;;;7.40;99.90;;;;;;5030625;28;20511;-49
2022/09/30 02:18:40;;;;;;;6.67;5.90;;;7.50;99.90;;;;;;5030618;28;20818;-51
2022/09/30 02:21:07;;;;;;;6.97;5.93;;;7.60;99.90;;;;;;5031627;28;20441;-50
2022/09/30 02:23:40;;;;;;;6.13;5.53;;;7.50;99.90;;;;;;5029605;28;20483;-50
2022/09/30 02:26:20;;;;;;;6.47;5.40;;;7.70;99.90;;;;;;5030341;28;20437;-49
2022/09/30 02:28:56;;;;;;;10.87;6.70;;;7.60;99.90;;;;;;5030523;28;20436;-50
2022/09/30 02:31:24;;;;;;;7.87;5.47;;;7.90;99.90;;;;;;5030203;28;20476;-48
2022/09/30 02:33:55;;;;;;;6.37;5.77;;;7.80;99.90;;;;;;5029372;28;20427;-48
2022/09/30 02:36:32;;;;;;;7.03;5.70;;;7.80;99.90;;;;;;5030404;28;20949;-48
2022/09/30 02:39:11;;;;;;;6.10;5.50;;;7.80;99.90;;;;;;5030095;28;20936;-50
2022/09/30 02:41:46;;;;;;;6.77;5.27;;;8.10;99.90;;;;;;5030104;28;20436;-48
2022/09/30 02:44:13;;;;;;;6.50;5.90;;;8.00;99.90;;;;;;5027897;28;21028;-47
2022/09/30 02:47:07;;;;;;;8.60;6.77;;;8.00;99.90;;;;;;5030072;28;20448;-51
2022/09/30 02:49:47;;;;;;;6.87;5.40;;;7.90;99.90;;;;;;5030034;28;20431;-53
2022/09/30 02:52:22;;;;;;;7.17;6.20;;;7.70;99.90;;;;;;5029718;28;20479;-51
2022/09/30 02:55:17;;;;;;;9.93;6.53;;;7.70;99.90;;;;;;5027019;28;20482;-48
2022/09/30 02:58:04;;;;;;;8.23;5.93;;;7.50;99.90;;;;;;5029940;28;20504;-52
2022/09/30 03:00:31;;;;;;;7.57;6.17;;;7.50;99.90;;;;;;5029883;28;20433;-47
2022/09/30 03:03:04;;;;;;;6.80;6.00;;;7.60;99.90;;;;;;5029126;28;20433;-53
2022/09/30 03:05:29;;;;;;;6.23;5.63;;;7.40;99.90;;;;;;5028426;28;20445;-49
2022/09/30 03:07:56;;;;;;;6.10;5.57;;;7.40;99.90;;;;;;5029793;28;20768;-49
2022/09/30 03:10:22;;;;;;;5.97;5.33;;;7.30;99.90;;;;;;5029859;28;20488;-49
2022/09/30 03:13:13;;;;;;;6.40;5.80;;;7.20;99.90;;;;;;5029152;28;20425;-46
2022/09/30 03:15:51;;;;;;;5.90;5.13;;;7.20;99.90;;;;;;5029572;28;20436;-51
2022/09/30 03:18:52;;;;;;;6.80;5.33;;;6.90;99.90;;;;;;5031458;28;20432;-47
2022/09/30 03:21:50;;;;;;;6.43;5.83;;;7.20;99.90;;;;;;5033432;28;20434;-50
2022/09/30 03:24:40;;;;;;;6.50;5.90;;;7.00;99.90;;;;;;5032091;28;20436;-50
2022/09/30 03:27:10;;;;;;;6.20;5.60;;;6.80;99.90;;;;;;5033773;28;20469;-52
2022/09/30 03:30:00;;;;;;;6.93;6.20;;;7.30;99.90;;;;;;5033682;28;20459;-52
2022/09/30 03:32:47;;;;;;;7.20;6.50;;;7.20;99.90;;;;;;5033262;28;20429;-48
2022/09/30 03:35:35;;;;;;;6.53;5.47;;;7.50;99.90;;;;;;5033520;28;20420;-53
2022/09/30 03:38:06;;;;;;;8.00;6.30;;;7.30;99.90;;;;;;5033582;28;20623;-50
2022/09/30 03:41:00;;;;;;;8.73;6.37;;;7.30;99.90;;;;;;5033196;28;20487;-52
2022/09/30 03:43:34;;;;;;;6.77;6.10;;;7.70;99.90;;;;;;5032879;28;20421;-51
2022/09/30 03:46:07;;;;;;;6.50;5.90;;;7.50;99.90;;;;;;5033360;28;20429;-50
2022/09/30 03:48:35;;;;;;;8.20;7.17;;;7.50;99.90;;;;;;5033342;28;20428;-53
2022/09/30 03:51:02;;;;;;;6.67;6.07;;;7.40;99.90;;;;;;5032906;28;20469;-50
2022/09/30 03:53:28;;;;;;;6.90;5.90;;;7.30;99.90;;;;;;5032832;28;20421;-50
2022/09/30 03:55:54;;;;;;;6.20;5.60;;;7.30;99.90;;;;;;5032344;28;20974;-53
2022/09/30 03:58:22;;;;;;;6.60;5.90;;;7.20;99.90;;;;;;5033190;28;20191;-53
2022/09/30 04:00:53;;;;;;;6.10;5.50;;;7.10;99.90;;;;;;5031799;28;20429;-51
2022/09/30 04:03:20;;;;;;;7.10;5.70;;;7.00;99.90;;;;;;5032393;28;20428;-50
2022/09/30 04:05:46;;;;;;;8.47;6.80;;;7.20;99.90;;;;;;5032674;28;20453;-51
2022/09/30 04:08:12;;;;;;;8.03;6.60;;;7.20;99.90;;;;;;5032977;28;20420;-48
2022/09/30 04:10:42;;;;;;;6.90;6.20;;;7.50;99.90;;;;;;5032814;28;20487;-48
2022/09/30 04:13:09;;;;;;;8.03;6.40;;;7.20;99.90;;;;;;5031027;28;20178;-49
2022/09/30 04:15:35;;;;;;;7.60;6.80;;;7.30;99.90;;;;;;5031395;28;20421;-51
2022/09/30 04:18:02;;;;;;;8.40;7.50;;;7.50;99.90;;;;;;5032680;28;20424;-47
2022/09/30 04:20:29;;;;;;;7.43;6.40;;;7.40;99.90;;;;;;5033570;28;20575;-48
2022/09/30 04:22:59;;;;;;;7.23;6.53;;;7.30;99.90;;;;;;5032062;28;20429;-49
2022/09/30 04:25:26;;;;;;;8.83;7.53;;;7.30;99.90;;;;;;5032678;28;20508;-52
2022/09/30 04:27:51;;;;;;;8.63;7.73;;;7.40;99.90;;;;;;5032647;28;20437;-52
2022/09/30 04:30:17;;;;;;;9.77;8.50;;;7.20;99.90;;;;;;5032011;28;20543;-48
2022/09/30 04:32:46;;;;;;;9.80;8.40;;;7.40;99.90;;;;;;5031681;28;20187;-51
2022/09/30 04:35:13;;;;;;;8.63;7.73;;;7.10;99.90;;;;;;5032526;28;20206;-49
2022/09/30 04:37:43;;;;;;;11.33;8.20;;;7.20;99.90;;;;;;5032245;28;20422;-52
2022/09/30 04:40:10;;;;;;;9.67;7.97;;;7.20;99.90;;;;;;5032657;28;20433;-51
2022/09/30 04:42:37;;;;;;;8.53;7.63;;;7.30;99.90;;;;;;5031817;28;20471;-51
2022/09/30 04:45:03;;;;;;;9.70;7.70;;;7.10;99.90;;;;;;5032137;28;20523;-53
2022/09/30 04:47:30;;;;;;;9.03;7.40;;;7.10;99.90;;;;;;5032031;28;20443;-49
2022/09/30 04:49:56;;;;;;;8.60;7.80;;;7.00;99.90;;;;;;5031085;28;20432;-52
2022/09/30 04:52:22;;;;;;;8.70;7.77;;;7.10;99.90;;;;;;5030476;28;20811;-54
2022/09/30 04:54:48;;;;;;;8.90;8.00;;;7.00;99.90;;;;;;5030915;28;20928;-50
2022/09/30 04:57:13;;;;;;;9.27;8.37;;;7.00;99.90;;;;;;5032037;28;20432;-50
2022/09/30 04:59:40;;;;;;;9.60;7.67;;;7.10;99.90;;;;;;5032013;28;20432;-54
2022/09/30 05:02:05;;;;;;;8.43;7.63;;;6.90;99.90;;;;;;5031805;28;20339;-51
2022/09/30 05:04:32;;;;;;;9.80;8.40;;;7.10;99.90;;;;;;5030228;28;20570;-50
2022/09/30 05:07:00;;;;;;;9.77;8.87;;;7.10;99.90;;;;;;5031860;28;20190;-50
2022/09/30 05:09:26;;;;;;;10.23;7.80;;;7.10;99.90;;;;;;5031998;28;20432;-52
2022/09/30 05:11:52;;;;;;;11.17;8.90;;;7.10;99.90;;;;;;5031619;28;20461;-53
2022/09/30 05:14:17;;;;;;;9.70;8.80;;;7.20;99.90;;;;;;5030895;28;20201;-49
2022/09/30 05:16:43;;;;;;;10.20;9.20;;;7.10;99.90;;;;;;5031483;28;20292;-47
2022/09/30 05:19:09;;;;;;;9.33;8.33;;;7.30;99.90;;;;;;5031757;28;20186;-48
2022/09/30 05:21:34;;;;;;;9.43;8.50;;;7.10;99.90;;;;;;5030881;28;20196;-50
2022/09/30 05:24:01;;;;;;;10.93;8.43;;;7.10;99.90;;;;;;5031075;28;20574;-53
2022/09/30 05:26:26;;;;;;;8.70;7.80;;;7.00;99.90;;;;;;5031488;28;20190;-50
2022/09/30 05:28:52;;;;;;;9.03;7.50;;;7.10;99.90;;;;;;5031210;28;20428;-51
2022/09/30 05:31:19;;;;;;;8.93;7.67;;;7.30;99.90;;;;;;5031423;28;20215;-50
2022/09/30 05:33:45;;;;;;;7.90;7.20;;;7.30;99.90;;;;;;5030686;28;20260;-48
2022/09/30 05:36:14;;;;;;;8.20;7.30;;;7.50;99.90;;;;;;5031464;28;20959;-50
2022/09/30 05:38:40;;;;;;;10.43;9.27;;;7.40;99.90;;;;;;5031345;28;20417;-52
2022/09/30 05:41:12;;;;;;;10.40;9.37;;;7.60;99.90;;;;;;5030362;28;20468;-51
2022/09/30 05:43:39;;;;;;;11.17;9.17;;;7.40;99.90;;;;;;5029095;28;21145;-48
2022/09/30 05:46:05;;;;;;;11.07;9.40;;;7.50;99.90;;;;;;5031181;28;20433;-48
2022/09/30 05:48:31;;;;;;;11.43;8.80;;;7.50;99.90;;;;;;5031272;28;20512;-49
2022/09/30 05:50:59;;;;;;;10.80;9.47;;;7.40;99.90;;;;;;5030886;28;20568;-50
2022/09/30 05:53:25;;;;;;;10.63;9.50;;;7.60;99.90;;;;;;5030307;28;21315;-46
2022/09/30 05:55:52;;;;;;;11.27;9.93;;;7.50;99.90;;;;;;5028655;28;20483;-50
2022/09/30 05:58:18;;;;;;;10.43;9.43;;;7.60;99.90;;;;;;5031016;28;21051;-49
2022/09/30 06:00:45;;;;;;;9.17;8.27;;;7.40;99.90;;;;;;5031117;28;20982;-49
2022/09/30 06:03:12;;;;;;;9.50;8.50;;;7.40;99.90;;;;;;5030069;28;20766;-51
2022/09/30 06:05:39;;;;;;;9.17;8.37;;;7.20;99.90;;;;;;5030751;28;20439;-52
2022/09/30 06:08:08;;;;;;;13.73;10.53;;;7.00;99.90;;;;;;5030571;28;20502;-50
2022/09/30 06:10:34;;;;;;;10.63;9.63;;;7.10;99.90;;;;;;5030352;28;20484;-54
2022/09/30 06:13:03;;;;;;;10.77;8.73;;;7.40;99.90;;;;;;5030173;28;20436;-49
2022/09/30 06:15:29;;;;;;;13.50;10.50;;;7.50;99.90;;;;;;5030705;28;20421;-50
2022/09/30 06:17:55;;;;;;;11.77;10.57;;;7.70;99.90;;;;;;5030519;28;20517;-53
2022/09/30 06:20:21;;;;;;;11.50;10.20;;;7.90;99.90;;;;;;5031660;28;20206;-50
2022/09/30 06:22:47;;;;;;;11.93;10.63;;;7.80;99.90;;;;;;5028520;28;20887;-53
2022/09/30 06:25:13;;;;;;;13.47;10.50;;;7.90;99.90;;;;;;5030272;28;20429;-52
2022/09/30 06:27:42;;;;;;;12.80;10.80;;;7.90;99.90;;;;;;5030350;28;20425;-49
2022/09/30 06:30:09;;;;;;;11.70;10.60;;;7.90;99.90;;;;;;5030288;28;20413;-47
2022/09/30 06:32:34;;;;;;;11.47;10.13;;;8.00;99.90;;;;;;5030135;28;20786;-47
2022/09/30 06:35:01;;;;;;;13.63;11.63;;;8.00;99.90;;;;;;5029982;28;20467;-53
2022/09/30 06:37:27;;;;;;;12.80;11.50;;;8.00;99.90;;;;;;5030208;28;20182;-48
2022/09/30 06:39:53;;;;;;;13.50;12.07;;;8.30;99.90;;;;;;5030095;28;20503;-52
2022/09/30 06:42:20;;;;;;;13.30;11.23;;;8.10;99.90;;;;;;5030030;28;20429;-50
2022/09/30 06:44:45;;;;;;;12.80;10.90;;;8.30;99.90;;;;;;5029721;28;20717;-51
2022/09/30 06:47:14;;;;;;;12.27;10.70;;;8.30;99.90;;;;;;5028887;28;20457;-52
2022/09/30 06:49:41;;;;;;;14.03;11.50;;;8.40;99.90;;;;;;5028737;28;20684;-49
2022/09/30 06:52:11;;;;;;;14.50;11.13;;;8.50;99.90;;;;;;5029697;28;20477;-51
2022/09/30 06:54:38;;;;;;;14.10;12.03;;;8.70;99.90;;;;;;5028655;28;20421;-49
2022/09/30 06:57:04;;;;;;;12.60;10.60;;;8.80;99.90;;;;;;5030004;28;20421;-47
2022/09/30 06:59:30;;;;;;;12.17;10.97;;;8.90;99.90;;;;;;5030106;28;20950;-48
2022/09/30 07:01:55;;;;;;;13.63;11.90;;;9.00;99.90;;;;;;5029808;28;20213;-48
2022/09/30 07:04:22;;;;;;;14.37;11.67;;;9.00;99.90;;;;;;5028741;28;20244;-51
2022/09/30 07:06:48;;;;;;;12.40;11.10;;;9.10;99.90;;;;;;5028258;28;20202;-51
2022/09/30 07:09:13;;;;;;;14.43;13.00;;;9.20;99.90;;;;;;5029031;28;20435;-48
2022/09/30 07:11:39;;;;;;;13.30;11.83;;;9.30;99.90;;;;;;5029716;28;20206;-51
2022/09/30 07:14:06;;;;;;;14.17;11.57;;;9.40;99.90;;;;;;5029251;28;20182;-50
2022/09/30 07:16:33;;;;;;;14.67;12.50;;;9.50;99.90;;;;;;5029684;28;20245;-51
2022/09/30 07:19:00;;;;;;;14.13;11.90;;;9.70;99.90;;;;;;5029854;28;20436;-49
2022/09/30 07:21:26;;;;;;;15.00;11.93;;;9.90;99.90;;;;;;5029959;28;20498;-51
2022/09/30 07:23:53;;;;;;;16.80;15.00;;;10.10;99.90;;;;;;5029161;28;20815;-51
2022/09/30 07:26:21;;;;;;;13.30;11.90;;;10.30;99.90;;;;;;5029523;28;20429;-51
2022/09/30 07:28:48;;;;;;;14.40;13.00;;;10.50;99.90;;;;;;5029960;28;20435;-52
2022/09/30 07:31:25;;;;;;;16.37;14.77;;;10.70;99.90;;;;;;5029490;28;20472;-49
2022/09/30 07:33:51;;;;;;;11.83;10.73;;;11.00;99.90;;;;;;5028957;28;20455;-51
2022/09/30 07:36:22;;;;;;;11.90;10.33;;;11.20;99.90;;;;;;5029500;28;20414;-47
2022/09/30 07:38:50;;;;;;;11.53;10.10;;;11.50;99.90;;;;;;5029766;28;20587;-54
2022/09/30 07:41:26;;;;;;;12.20;10.17;;;11.70;99.90;;;;;;5029439;28;20977;-50
2022/09/30 07:43:54;;;;;;;14.30;12.90;;;11.90;99.90;;;;;;5028944;28;21089;-51
2022/09/30 07:46:23;;;;;;;14.70;13.20;;;12.00;99.90;;;;;;5028108;28;20440;-52
2022/09/30 07:48:51;;;;;;;12.63;10.47;;;12.10;99.90;;;;;;5029758;28;20433;-53
2022/09/30 07:51:22;;;;;;;11.97;10.77;;;12.20;99.90;;;;;;5029518;28;20464;-50
2022/09/30 07:53:54;;;;;;;13.30;11.90;;;12.30;99.90;;;;;;5028128;28;20775;-54
2022/09/30 07:56:21;;;;;;;12.83;11.43;;;12.40;99.90;;;;;;5029328;28;20419;-51
2022/09/30 07:58:46;;;;;;;11.60;10.40;;;12.40;99.90;;;;;;5029276;28;20563;-51
2022/09/30 08:01:13;;;;;;;11.87;10.07;;;12.60;99.90;;;;;;5029490;28;20861;-53
2022/09/30 08:03:43;;;;;;;12.07;9.93;;;12.60;99.90;;;;;;5029143;28;20511;-54
2022/09/30 08:06:12;;;;;;;17.07;12.70;;;12.60;99.90;;;;;;5032784;28;20451;-49
2022/09/30 08:08:38;;;;;;;13.37;9.77;;;12.60;99.90;;;;;;5033016;28;20433;-52
2022/09/30 08:11:05;;;;;;;11.90;10.67;;;12.70;99.90;;;;;;5032902;28;20460;-53
2022/09/30 08:13:30;;;;;;;9.80;8.80;;;12.80;99.90;;;;;;5031872;28;20449;-53
2022/09/30 08:15:56;;;;;;;10.70;9.70;;;12.90;99.90;;;;;;5032906;28;20518;-49
2022/09/30 08:18:22;;;;;;;11.70;9.13;;;12.90;99.90;;;;;;5032747;28;20659;-48
2022/09/30 08:20:48;;;;;;;9.97;8.77;;;12.90;99.90;;;;;;5033630;28;20539;-53
2022/09/30 08:23:13;;;;;;;10.67;8.73;;;13.00;99.90;;;;;;5032018;28;20196;-50
2022/09/30 08:25:39;;;;;;;12.40;9.63;;;13.10;99.90;;;;;;5032981;28;20191;-53
2022/09/30 08:28:05;;;;;;;9.53;8.37;;;13.20;99.90;;;;;;5030979;28;20191;-48
2022/09/30 08:30:33;;;;;;;11.93;9.03;;;13.30;99.90;;;;;;5032586;28;20207;-53
2022/09/30 08:32:59;;;;;;;9.40;8.47;;;13.30;99.90;;;;;;5031920;28;20227;-51
2022/09/30 08:35:25;;;;;;;10.10;9.00;;;13.40;99.90;;;;;;5032600;28;20993;-51
2022/09/30 08:37:50;;;;;;;9.63;8.73;;;13.40;99.90;;;;;;5032389;28;20663;-49
2022/09/30 08:40:22;;;;;;;10.83;8.73;;;13.50;99.90;;;;;;5032482;28;20665;-52
2022/09/30 08:42:52;;;;;;;9.30;8.30;;;13.50;99.90;;;;;;5031456;28;20661;-51
2022/09/30 08:45:34;;;;;;;10.63;8.27;;;13.60;99.90;;;;;;5032581;28;20421;-49
2022/09/30 08:48:05;;;;;;;11.37;8.43;;;13.60;99.90;;;;;;5032425;28;20478;-48
2022/09/30 08:50:49;;;;;;;8.50;7.70;;;13.70;99.90;;;;;;5032148;28;20551;-50
2022/09/30 08:53:23;;;;;;;9.30;8.40;;;13.80;99.90;;;;;;5031357;28;20839;-50
2022/09/30 08:55:49;;;;;;;10.43;8.20;;;13.90;99.90;;;;;;5031561;28;20471;-51
2022/09/30 08:58:27;;;;;;;9.83;8.17;;;14.00;99.90;;;;;;5032276;28;20503;-53
2022/09/30 09:01:09;;;;;;;11.27;8.23;;;14.10;99.90;;;;;;5032228;28;20421;-49
2022/09/30 09:03:34;;;;;;;11.37;8.00;;;14.20;99.90;;;;;;5031101;28;20797;-53
2022/09/30 09:06:23;;;;;;;10.10;7.70;;;14.20;99.90;;;;;;5030498;28;20475;-49
2022/09/30 09:09:10;;;;;;;9.40;8.40;;;14.30;99.90;;;;;;5031827;28;20495;-54
2022/09/30 09:12:08;;;;;;;8.50;7.70;;;14.40;99.90;;;;;;5031798;28;20495;-50
2022/09/30 09:14:49;;;;;;;9.33;7.27;;;14.50;99.90;;;;;;5016864;28;20518;-52
2022/09/30 09:17:24;;;;;;;9.40;7.70;;;14.60;99.90;;;;;;5031879;28;20988;-48
2022/09/30 09:20:14;;;;;;;9.40;8.37;;;14.70;99.90;;;;;;5032628;28;20423;-53
2022/09/30 09:22:42;;;;;;;11.87;7.43;;;14.90;99.90;;;;;;5043291;28;20456;-47
2022/09/30 09:25:15;;;;;;;10.83;7.70;;;14.90;99.90;;;;;;5031587;28;20429;-46
2022/09/30 09:27:54;;;;;;;9.23;7.07;;;15.00;99.90;;;;;;5031615;28;20436;-47
2022/09/30 09:30:22;;;;;;;10.13;7.40;;;15.20;99.90;;;;;;5031431;28;20427;-47
2022/09/30 09:33:01;;;;;;;8.33;6.57;;;15.30;99.90;;;;;;5030564;28;20460;-49
2022/09/30 09:36:11;;;;;;;7.50;6.70;;;15.40;99.90;;;;;;5031304;28;20773;-48
2022/09/30 09:39:09;;;;;;;7.70;6.90;;;15.50;99.90;;;;;;5016258;28;20496;-53
2022/09/30 09:41:43;;;;;;;10.13;6.63;;;15.60;99.90;;;;;;5027567;28;20428;-49
2022/09/30 09:44:14;;;;;;;7.53;6.53;;;15.70;99.90;;;;;;5049581;28;20798;-48
2022/09/30 09:46:40;;;;;;;7.43;6.30;;;15.80;99.90;;;;;;5049675;28;20432;-49
2022/09/30 09:49:16;;;;;;;9.40;6.30;;;15.80;99.90;;;;;;5047087;28;20428;-52
2022/09/30 09:51:48;;;;;;;11.03;6.40;;;16.00;99.90;;;;;;5030964;28;20216;-49
2022/09/30 09:54:19;;;;;;;10.00;6.57;;;16.10;99.90;;;;;;5029696;28;20540;-49
2022/09/30 09:56:44;;;;;;;9.00;6.80;;;16.20;99.90;;;;;;5030795;28;20414;-50
2022/09/30 09:59:18;;;;;;;8.07;6.00;;;16.20;99.90;;;;;;5031042;28;20556;-49
2022/09/30 10:01:49;;;;;;;8.53;6.00;;;16.30;99.90;;;;;;5030705;28;20617;-51
2022/09/30 10:04:24;;;;;;;6.87;5.80;;;16.40;99.90;;;;;;5030421;28;20428;-49
2022/09/30 10:07:00;;;;;;;6.83;6.13;;;16.50;99.90;;;;;;5029435;28;20444;-48
2022/09/30 10:09:30;;;;;;;11.60;5.97;;;16.50;99.90;;;;;;5030821;28;20831;-52
2022/09/30 10:12:26;;;;;;;8.97;6.00;;;16.50;99.90;;;;;;5030245;28;20460;-48
2022/09/30 10:14:54;;;;;;;8.60;5.60;;;16.60;99.90;;;;;;5027157;28;20425;-48
2022/09/30 10:17:24;;;;;;;8.57;5.70;;;16.60;99.90;;;;;;5030643;28;20775;-51
2022/09/30 10:19:54;;;;;;;6.63;5.13;;;16.70;99.90;;;;;;5031371;28;20522;-52
2022/09/30 10:22:27;;;;;;;6.77;5.00;;;16.70;99.90;;;;;;5030321;28;20829;-51
2022/09/30 10:25:14;;;;;;;8.53;5.37;;;16.70;99.90;;;;;;5029970;28;20815;-50
2022/09/30 10:27:56;;;;;;;8.83;6.10;;;16.80;99.90;;;;;;5030050;28;20761;-52
2022/09/30 10:30:45;;;;;;;7.13;5.80;;;16.90;99.90;;;;;;5030477;28;20449;-53
2022/09/30 10:33:22;;;;;;;7.80;5.60;;;16.90;99.90;;;;;;5029390;28;20932;-49
2022/09/30 10:36:09;;;;;;;6.40;5.60;;;16.90;99.90;;;;;;5029094;28;20469;-49
2022/09/30 10:38:43;;;;;;;6.60;5.30;;;16.80;99.90;;;;;;5028733;28;20429;-48
2022/09/30 10:41:09;;;;;;;7.47;6.10;;;16.70;99.90;;;;;;5030147;28;20429;-50
2022/09/30 10:43:42;;;;;;;6.93;6.00;;;16.80;99.90;;;;;;5029227;28;20766;-49
2022/09/30 10:46:09;;;;;;;7.60;5.70;;;16.80;99.90;;;;;;5030159;28;20269;-51
2022/09/30 10:48:37;;;;;;;7.07;5.83;;;16.80;99.90;;;;;;5030194;28;20960;-47
2022/09/30 10:51:05;;;;;;;6.80;5.73;;;16.70;99.90;;;;;;5017264;28;21009;-50
2022/09/30 10:53:34;;;;;;;7.00;5.20;;;16.70;99.90;;;;;;5027850;28;20478;-49
2022/09/30 10:56:04;;;;;;;8.07;6.37;;;16.60;99.90;;;;;;5028455;28;20730;-53
2022/09/30 10:58:38;;;;;;;6.43;5.00;;;16.70;99.90;;;;;;5029726;28;20780;-51
2022/09/30 11:01:04;;;;;;;6.60;4.93;;;16.70;99.90;;;;;;5030000;28;20424;-52
2022/09/30 11:03:38;;;;;;;5.90;5.27;;;16.80;99.90;;;;;;5029213;28;20440;-52
2022/09/30 11:06:06;;;;;;;6.83;5.40;;;16.70;99.90;;;;;;5029792;28;20214;-53
2022/09/30 11:08:56;;;;;;;8.03;4.90;;;16.60;99.90;;;;;;5029538;28;20440;-52
2022/09/30 11:11:33;;;;;;;4.20;3.90;;;16.60;99.90;;;;;;5029750;28;20963;-51
2022/09/30 11:14:18;;;;;;;5.00;4.60;;;16.60;99.90;;;;;;5029330;28;20425;-54
2022/09/30 11:16:50;;;;;;;5.27;4.77;;;16.80;99.90;;;;;;5029609;28;20936;-52
2022/09/30 11:19:21;;;;;;;5.00;4.50;;;16.90;99.90;;;;;;5029941;28;20478;-51
2022/09/30 11:21:58;;;;;;;6.40;5.33;;;17.00;99.90;;;;;;5029711;28;20429;-49
2022/09/30 11:24:54;;;;;;;7.93;5.07;;;17.00;99.90;;;;;;5029032;28;20966;-48
2022/09/30 11:27:27;;;;;;;4.83;4.33;;;17.00;99.90;;;;;;5028853;28;20440;-52
2022/09/30 11:30:14;;;;;;;5.17;4.30;;;16.90;99.90;;;;;;5029693;28;20520;-51
2022/09/30 11:33:05;;;;;;;4.93;4.43;;;16.70;99.90;;;;;;5029169;28;20477;-51
2022/09/30 11:35:46;;;;;;;5.60;5.03;;;16.50;99.90;;;;;;5028164;28;20409;-53
2022/09/30 11:38:26;;;;;;;5.43;4.30;;;16.30;99.90;;;;;;5029757;28;20409;-52
2022/09/30 11:41:16;;;;;;;7.90;4.47;;;16.50;99.90;;;;;;5033638;28;20482;-51
2022/09/30 11:44:00;;;;;;;5.13;3.83;;;16.60;99.90;;;;;;5032791;28;20428;-51
2022/09/30 11:46:50;;;;;;;4.57;4.17;;;16.80;99.90;;;;;;5048773;28;20420;-52
2022/09/30 11:49:21;;;;;;;4.30;3.90;;;17.00;99.90;;;;;;5033347;28;20417;-49
2022/09/30 11:51:50;;;;;;;5.13;3.90;;;17.20;99.90;;;;;;5033207;28;20457;-51
2022/09/30 11:54:49;;;;;;;4.70;3.90;;;17.30;99.90;;;;;;5030875;28;20507;-50
2022/09/30 11:57:23;;;;;;;4.63;3.83;;;17.40;99.30;;;;;;5033265;28;20432;-53
2022/09/30 12:00:00;;;;;;;4.03;3.63;;;17.40;98.80;;;;;;5033163;28;20904;-47
2022/09/30 12:02:28;;;;;;;5.33;3.30;;;17.50;99.20;;;;;;5031677;28;20467;-52
2022/09/30 12:05:02;;;;;;;5.23;3.87;;;17.60;99.70;;;;;;5032437;28;20455;-53
2022/09/30 12:07:57;;;;;;;5.13;3.97;;;17.60;98.80;;;;;;5022290;28;20477;-52
2022/09/30 12:10:37;;;;;;;4.80;3.07;;;17.70;98.10;;;;;;5032521;28;20468;-53
2022/09/30 12:13:11;;;;;;;3.93;3.20;;;17.70;98.10;;;;;;5032057;28;20953;-53
2022/09/30 12:15:41;;;;;;;6.20;3.00;;;17.70;97.90;;;;;;5033082;28;20845;-53
2022/09/30 12:18:18;;;;;;;4.20;3.33;;;17.70;98.40;;;;;;5033024;28;20449;-53
2022/09/30 12:20:51;;;;;;;5.80;3.97;;;17.70;98.40;;;;;;5033663;28;20813;-52
2022/09/30 12:23:26;;;;;;;3.87;3.43;;;17.60;98.20;;;;;;5032205;28;20425;-50
2022/09/30 12:25:56;;;;;;;6.10;3.57;;;17.50;97.90;;;;;;5032806;28;20435;-47
2022/09/30 12:31:34;;;;;;;3.07;2.77;;;17.60;98.60;;;;;;5032399;28;20471;-52
2022/09/30 12:34:22;;;;;;;3.13;2.80;;;17.60;98.50;;;;;;5031728;28;20435;-49
2022/09/30 12:37:01;;;;;;;3.97;3.47;;;17.60;98.30;;;;;;5032566;28;20555;-50
2022/09/30 12:40:00;;;;;;;2.90;2.60;;;17.70;97.10;;;;;;5032537;28;20478;-54
2022/09/30 12:42:25;;;;;;;4.97;2.80;;;17.70;97.50;;;;;;5030682;28;20425;-51
2022/09/30 12:45:00;;;;;;;3.30;3.00;;;17.70;98.00;;;;;;5032015;28;20444;-52
2022/09/30 12:47:26;;;;;;;3.40;3.10;;;17.70;97.30;;;;;;5032306;28;20242;-50
2022/09/30 12:49:55;;;;;;;5.43;3.43;;;17.60;96.50;;;;;;5031964;28;20919;-51
2022/09/30 12:52:21;;;;;;;4.87;3.30;;;17.50;96.90;;;;;;5031857;28;20367;-50
2022/09/30 12:54:56;;;;;;;4.17;3.77;;;17.50;98.30;;;;;;5028553;28;20440;-49
2022/09/30 12:57:32;;;;;;;3.37;3.00;;;17.40;97.10;;;;;;5032059;28;20915;-54
2022/09/30 13:00:07;;;;;;;5.80;3.30;;;17.50;97.50;;;;;;5032180;28;20413;-51
2022/09/30 13:02:40;;;;;;;4.10;3.47;;;17.50;97.30;;;;;;5031718;28;20432;-51
2022/09/30 13:05:38;;;;;;;3.67;3.37;;;17.60;97.40;;;;;;5031694;28;20464;-51
2022/09/30 13:08:03;;;;;;;4.60;3.73;;;17.60;96.10;;;;;;5031115;28;20857;-51
2022/09/30 13:10:42;;;;;;;5.77;3.43;;;17.60;96.90;;;;;;5031839;28;20468;-51
2022/09/30 13:13:24;;;;;;;5.73;3.63;;;17.60;97.60;;;;;;5031234;28;20194;-50
2022/09/30 13:15:51;;;;;;;3.60;3.23;;;17.70;97.00;;;;;;5032059;28;20440;-51
2022/09/30 13:18:20;;;;;;;3.53;3.20;;;17.70;96.90;;;;;;5031814;28;20429;-53
2022/09/30 13:20:53;;;;;;;5.57;3.50;;;17.80;98.00;;;;;;5032646;28;20483;-51